Kezdőlap
METAR-TAF:

METAR-TAF

Repülőterek :

Creston, Iowa, Amerikai Egyesült Államok

földrajzi szélesség: 41-01N, földrajzi hosszúság: 094-22W, magasság: 394 m

Jelenlegi meteorológiai megfigyelések

A jelentés 47 perccel ezelõtt készült, 17:55 UTC
Kelet-délkeleti szél 5 kt
Hőmérséklet 27°C
Páratartalom 89%
Légköri nyomás 1012 hPa
Látótávolság: 14.5 km
Kevés felhő 9000 lábon
Kevés felhő 11000 lábon

METAR: KCSQ 181755Z AUTO 11005KT 9SM FEW090 FEW110 27/25 A2988 RMK AO2

Idő: 13:42 (18:42 UTC)


TAF: hiányzik

Meteorológiai megfigyelések és előrejelzések több, mint 4000 repülőtéren (METAR és TAF jelentéseket).

A térképen piros és sárga pontok jelzik az elérhető meteorológiai állomásokat.

Mozgassa az egeret a pont fölött, hogy megjelenjen az állomás neve.

Azután kattintson az időjárási megfigyelések és előrejelzések megtekintéséhez.

A térkép megváltoztatása: kattintson a fekete keresztel jelölt zöld gombra ráközelítéshez, a vonallal jelölt zöld gombra távolításhoz, vagy a zöld nyilakra a szomszédos térképek eléréséhez.


METAR-TAF: